Terminal Aerodrome Forecast
Issued by NWS

Home | Current Version | Previous Version | Text Only | Print | Product List | Glossary On
Versions: 1 2 3 4 5 6 7 8 9 10 11 12 13 14 15 16 17 18 19 20 21 22 23 24 25 26 27 28 29 30 31
000
FTUS44 KOUN 211740
TAFLAW
TAF
KLAW 211740Z 2118/2218 17014G22KT P6SM OVC025
     FM212200 16013KT P6SM BKN025
      TEMPO 2122/2201 SCT025
     FM220800 24010KT 4SM BR OVC015
     FM221100 34015KT P6SM BKN150=

USA.gov is the U.S. government's official web portal to all federal, state and local government web resources and services.